Time,TemperatureF,DewpointF,PressureIn,WindDirection,WindDirectionDegrees,WindSpeedMPH,WindSpeedGustMPH,Humidity,HourlyPrecipIn,Conditions,Clouds,dailyrainin,SoftwareType,DateUTC
2013-03-25 00:00:00,39.3,38.0,29.50,ENE,76,0.0,2.0,95,0.00,,CLR,0.97,VWS V14.00,2013-03-25 04:00:00,
2013-03-25 00:05:00,39.3,38.0,29.50,ENE,76,0.0,0.0,95,0.00,,CLR,0.00,VWS V14.00,2013-03-25 04:05:00,
2013-03-25 00:10:00,39.4,37.8,29.50,ENE,76,0.0,0.0,94,0.00,,CLR,0.00,VWS V14.00,2013-03-25 04:10:00,
2013-03-25 00:15:00,39.4,38.1,29.50,ENE,76,0.0,0.0,95,0.00,,CLR,0.00,VWS V14.00,2013-03-25 04:15:00,
2013-03-25 00:20:00,39.4,38.1,29.50,ENE,76,0.0,0.0,95,0.00,,CLR,0.00,VWS V14.00,2013-03-25 04:20:00,
2013-03-25 00:25:00,39.3,38.0,29.50,ENE,76,0.0,0.0,95,0.00,,CLR,0.00,VWS V14.00,2013-03-25 04:25:00,
2013-03-25 00:30:00,39.3,38.0,29.50,ENE,76,0.0,0.0,95,0.00,,CLR,0.00,VWS V14.00,2013-03-25 04:30:00,
2013-03-25 00:35:00,39.3,38.0,29.50,ENE,76,0.0,0.0,95,0.00,,CLR,0.00,VWS V14.00,2013-03-25 04:35:00,
2013-03-25 00:40:00,39.3,38.0,29.50,ENE,76,0.0,0.0,95,0.00,,CLR,0.00,VWS V14.00,2013-03-25 04:40:00,
2013-03-25 00:45:00,39.2,37.9,29.50,ENE,76,0.0,0.0,95,0.00,,CLR,0.00,VWS V14.00,2013-03-25 04:45:00,
2013-03-25 00:50:00,39.3,38.0,29.50,ENE,76,0.0,0.0,95,0.00,,CLR,0.00,VWS V14.00,2013-03-25 04:50:00,
2013-03-25 00:55:00,39.3,38.0,29.50,ENE,76,0.0,0.0,95,0.00,,CLR,0.00,VWS V14.00,2013-03-25 04:55:00,
2013-03-25 01:00:00,39.3,38.0,29.50,ENE,76,0.0,0.0,95,0.00,,CLR,0.00,VWS V14.00,2013-03-25 05:00:00,
2013-03-25 01:05:00,39.3,38.0,29.50,ENE,76,0.0,0.0,95,0.00,,CLR,0.00,VWS V14.00,2013-03-25 05:05:00,
2013-03-25 01:10:00,39.3,38.0,29.50,ENE,76,0.0,0.0,95,0.00,,CLR,0.00,VWS V14.00,2013-03-25 05:10:00,
2013-03-25 01:15:00,39.2,37.9,29.49,ENE,76,0.0,0.0,95,0.00,,CLR,0.00,VWS V14.00,2013-03-25 05:15:00,
2013-03-25 01:20:00,39.2,37.9,29.49,ENE,76,0.0,0.0,95,0.00,,CLR,0.00,VWS V14.00,2013-03-25 05:20:00,
2013-03-25 01:25:00,39.3,38.0,29.49,ENE,76,0.0,0.0,95,0.00,,CLR,0.00,VWS V14.00,2013-03-25 05:25:00,
2013-03-25 01:30:00,39.3,38.0,29.48,ENE,76,0.0,0.0,95,0.00,,CLR,0.00,VWS V14.00,2013-03-25 05:30:00,
2013-03-25 01:35:00,39.2,37.9,29.48,ENE,76,0.0,0.0,95,0.00,,CLR,0.00,VWS V14.00,2013-03-25 05:35:00,
2013-03-25 01:40:00,39.2,37.9,29.48,ENE,76,0.0,0.0,95,0.00,,CLR,0.00,VWS V14.00,2013-03-25 05:40:00,
2013-03-25 01:45:00,39.2,37.9,29.48,ENE,76,0.0,0.0,95,0.00,,CLR,0.00,VWS V14.00,2013-03-25 05:45:00,
2013-03-25 01:50:00,39.2,37.9,29.48,ENE,76,0.0,0.0,95,0.00,,CLR,0.00,VWS V14.00,2013-03-25 05:50:00,
2013-03-25 01:55:00,39.2,37.9,29.48,ENE,76,0.0,0.0,95,0.00,,CLR,0.00,VWS V14.00,2013-03-25 05:55:00,
2013-03-25 02:00:00,39.1,37.8,29.48,ENE,76,0.0,0.0,95,0.00,,CLR,0.00,VWS V14.00,2013-03-25 06:00:00,
2013-03-25 02:05:00,39.1,37.8,29.48,ENE,76,0.0,0.0,95,0.00,,CLR,0.00,VWS V14.00,2013-03-25 06:05:00,
2013-03-25 02:10:00,39.1,37.8,29.48,ENE,76,0.0,0.0,95,0.00,,CLR,0.00,VWS V14.00,2013-03-25 06:10:00,
2013-03-25 02:15:00,39.1,37.8,29.48,ENE,76,0.0,0.0,95,0.00,,CLR,0.00,VWS V14.00,2013-03-25 06:15:00,
2013-03-25 02:20:00,39.1,37.8,29.48,ENE,76,0.0,0.0,95,0.00,,CLR,0.00,VWS V14.00,2013-03-25 06:20:00,
2013-03-25 02:25:00,39.1,37.8,29.48,ENE,76,0.0,0.0,95,0.00,,CLR,0.00,VWS V14.00,2013-03-25 06:25:00,
2013-03-25 02:30:00,39.1,37.8,29.48,ENE,76,0.0,0.0,95,0.00,,CLR,0.00,VWS V14.00,2013-03-25 06:30:00,
2013-03-25 02:35:00,39.1,37.8,29.48,ENE,76,0.0,0.0,95,0.00,,CLR,0.00,VWS V14.00,2013-03-25 06:35:00,
2013-03-25 02:40:00,39.1,37.8,29.48,ENE,76,0.0,0.0,95,0.00,,CLR,0.00,VWS V14.00,2013-03-25 06:40:00,
2013-03-25 02:45:00,39.2,37.9,29.48,ENE,76,0.0,0.0,95,0.00,,CLR,0.00,VWS V14.00,2013-03-25 06:45:00,
2013-03-25 02:50:00,39.2,37.9,29.48,ENE,76,0.0,0.0,95,0.00,,CLR,0.00,VWS V14.00,2013-03-25 06:50:00,
2013-03-25 02:55:00,39.2,37.9,29.48,ENE,76,0.0,0.0,95,0.00,,CLR,0.00,VWS V14.00,2013-03-25 06:55:00,
2013-03-25 03:00:00,39.2,37.9,29.48,ENE,76,0.0,0.0,95,0.00,,CLR,0.00,VWS V14.00,2013-03-25 07:00:00,
2013-03-25 03:05:00,39.2,37.9,29.48,ENE,76,0.0,1.0,95,0.00,,CLR,0.00,VWS V14.00,2013-03-25 07:05:00,
2013-03-25 03:10:00,39.3,38.0,29.48,ENE,76,0.0,1.0,95,0.00,,CLR,0.00,VWS V14.00,2013-03-25 07:10:00,
2013-03-25 03:15:00,39.3,38.0,29.47,ENE,76,0.0,1.0,95,0.00,,CLR,0.00,VWS V14.00,2013-03-25 07:15:00,
2013-03-25 03:20:00,39.2,37.9,29.47,ENE,76,0.0,1.0,95,0.00,,CLR,0.00,VWS V14.00,2013-03-25 07:20:00,
2013-03-25 03:25:00,39.2,37.9,29.47,ENE,76,0.0,1.0,95,0.00,,CLR,0.00,VWS V14.00,2013-03-25 07:25:00,
2013-03-25 03:30:00,39.2,37.9,29.47,ENE,76,0.0,0.0,95,0.00,,CLR,0.00,VWS V14.00,2013-03-25 07:30:00,
2013-03-25 03:35:00,39.2,37.9,29.47,ENE,76,0.0,0.0,95,0.00,,CLR,0.00,VWS V14.00,2013-03-25 07:35:00,
2013-03-25 03:40:00,39.2,37.9,29.47,ENE,76,0.0,0.0,95,0.00,,CLR,0.00,VWS V14.00,2013-03-25 07:40:00,
2013-03-25 03:45:00,39.2,37.9,29.47,ENE,76,0.0,0.0,95,0.00,,CLR,0.00,VWS V14.00,2013-03-25 07:45:00,
2013-03-25 03:50:00,39.2,37.9,29.47,ENE,76,0.0,0.0,95,0.00,,CLR,0.00,VWS V14.00,2013-03-25 07:50:00,
2013-03-25 03:55:00,39.3,38.0,29.47,ENE,76,0.0,0.0,95,0.00,,CLR,0.00,VWS V14.00,2013-03-25 07:55:00,
2013-03-25 04:00:00,39.4,38.1,29.48,WNW,291,2.0,5.0,95,0.00,,CLR,0.00,VWS V14.00,2013-03-25 08:00:00,
2013-03-25 04:05:00,39.2,37.9,29.48,West,269,0.0,6.0,95,0.01,,CLR,0.01,VWS V14.00,2013-03-25 08:05:00,
2013-03-25 04:10:00,38.9,37.6,29.48,SSE,153,0.0,6.0,95,0.01,,CLR,0.01,VWS V14.00,2013-03-25 08:10:00,
2013-03-25 04:15:00,38.8,37.5,29.46,SSE,153,0.0,6.0,95,0.02,,CLR,0.02,VWS V14.00,2013-03-25 08:15:00,
2013-03-25 04:20:00,38.7,37.4,29.46,SSE,153,0.0,6.0,95,0.02,,CLR,0.02,VWS V14.00,2013-03-25 08:20:00,
2013-03-25 04:25:00,38.6,37.3,29.46,SSE,153,0.0,6.0,95,0.03,,CLR,0.03,VWS V14.00,2013-03-25 08:25:00,
2013-03-25 04:30:00,38.2,36.9,29.47,SSE,153,0.0,0.0,95,0.03,,CLR,0.03,VWS V14.00,2013-03-25 08:30:00,
2013-03-25 04:35:00,37.9,36.6,29.47,SSE,153,0.0,0.0,95,0.03,,CLR,0.03,VWS V14.00,2013-03-25 08:35:00,
2013-03-25 04:40:00,37.8,36.5,29.47,SSE,153,0.0,0.0,95,0.04,,CLR,0.04,VWS V14.00,2013-03-25 08:40:00,
2013-03-25 04:45:00,37.7,36.4,29.48,SSE,153,0.0,0.0,95,0.04,,CLR,0.04,VWS V14.00,2013-03-25 08:45:00,
2013-03-25 04:50:00,37.7,36.7,29.48,SSE,153,0.0,0.0,96,0.04,,CLR,0.04,VWS V14.00,2013-03-25 08:50:00,
2013-03-25 04:55:00,37.7,36.4,29.48,SSE,153,0.0,0.0,95,0.04,,CLR,0.04,VWS V14.00,2013-03-25 08:55:00,
2013-03-25 05:00:00,37.7,36.4,29.48,SSE,153,0.0,0.0,95,0.04,,CLR,0.04,VWS V14.00,2013-03-25 09:00:00,
2013-03-25 05:05:00,37.6,36.3,29.48,SSE,153,0.0,0.0,95,0.04,,CLR,0.04,VWS V14.00,2013-03-25 09:05:00,
2013-03-25 05:10:00,37.4,36.1,29.48,SSE,153,0.0,0.0,95,0.04,,CLR,0.04,VWS V14.00,2013-03-25 09:10:00,
2013-03-25 05:15:00,37.3,36.3,29.48,SSE,153,0.0,0.0,96,0.04,,CLR,0.04,VWS V14.00,2013-03-25 09:15:00,
2013-03-25 05:20:00,37.2,36.2,29.48,SSE,153,0.0,0.0,96,0.04,,CLR,0.04,VWS V14.00,2013-03-25 09:20:00,
2013-03-25 05:25:00,37.2,36.2,29.48,SSE,153,0.0,0.0,96,0.04,,CLR,0.04,VWS V14.00,2013-03-25 09:25:00,
2013-03-25 05:30:00,37.1,36.1,29.48,SSE,153,0.0,0.0,96,0.01,,CLR,0.04,VWS V14.00,2013-03-25 09:30:00,
2013-03-25 05:35:00,37.1,35.8,29.48,SSE,153,0.0,0.0,95,0.01,,CLR,0.04,VWS V14.00,2013-03-25 09:35:00,
2013-03-25 05:40:00,37.0,35.7,29.48,SSE,153,0.0,1.0,95,0.01,,CLR,0.04,VWS V14.00,2013-03-25 09:40:00,
2013-03-25 05:45:00,36.7,35.7,29.48,SSE,153,0.0,1.0,96,0.01,,CLR,0.04,VWS V14.00,2013-03-25 09:45:00,
2013-03-25 05:50:00,36.5,35.2,29.48,SSE,153,0.0,1.0,95,0.01,,CLR,0.04,VWS V14.00,2013-03-25 09:50:00,
2013-03-25 05:55:00,36.4,35.1,29.48,SSE,153,0.0,1.0,95,0.01,,CLR,0.04,VWS V14.00,2013-03-25 09:55:00,
2013-03-25 06:00:00,36.4,35.1,29.48,SSE,153,0.0,0.0,95,0.00,,CLR,0.04,VWS V14.00,2013-03-25 10:00:00,
2013-03-25 06:05:00,36.4,35.4,29.48,SSE,153,0.0,0.0,96,0.00,,CLR,0.04,VWS V14.00,2013-03-25 10:05:00,
2013-03-25 06:10:00,36.2,35.2,29.48,SSE,153,0.0,0.0,96,0.00,,CLR,0.04,VWS V14.00,2013-03-25 10:10:00,
2013-03-25 06:15:00,36.0,35.0,29.49,SSE,153,0.0,0.0,96,0.00,,CLR,0.04,VWS V14.00,2013-03-25 10:15:00,
2013-03-25 06:20:00,35.9,34.6,29.49,SW,233,0.0,2.0,95,0.00,,CLR,0.04,VWS V14.00,2013-03-25 10:20:00,
2013-03-25 06:25:00,35.8,34.5,29.49,WNW,286,0.0,2.0,95,0.00,,CLR,0.04,VWS V14.00,2013-03-25 10:25:00,
2013-03-25 06:30:00,35.8,34.8,29.50,WNW,285,0.0,0.0,96,0.00,,CLR,0.04,VWS V14.00,2013-03-25 10:30:00,
2013-03-25 06:35:00,35.9,34.9,29.50,WNW,286,0.0,1.0,96,0.00,,CLR,0.04,VWS V14.00,2013-03-25 10:35:00,
2013-03-25 06:40:00,35.9,34.9,29.50,WNW,285,0.0,1.0,96,0.00,,CLR,0.04,VWS V14.00,2013-03-25 10:40:00,
2013-03-25 06:45:00,36.1,35.1,29.50,WNW,286,0.0,1.0,96,0.00,,CLR,0.04,VWS V14.00,2013-03-25 10:45:00,
2013-03-25 06:50:00,36.3,35.3,29.50,WNW,285,0.0,1.0,96,0.00,,CLR,0.04,VWS V14.00,2013-03-25 10:50:00,
2013-03-25 06:55:00,36.6,35.6,29.50,WSW,241,3.0,3.0,96,0.00,,CLR,0.04,VWS V14.00,2013-03-25 10:55:00,
2013-03-25 07:00:00,36.8,35.8,29.51,WSW,252,3.0,3.0,96,0.00,,CLR,0.04,VWS V14.00,2013-03-25 11:00:00,
2013-03-25 07:05:00,36.9,35.9,29.51,SSW,211,2.0,5.0,96,0.00,,CLR,0.04,VWS V14.00,2013-03-25 11:05:00,
2013-03-25 07:10:00,36.9,35.9,29.51,SSW,205,3.0,6.0,96,0.00,,CLR,0.04,VWS V14.00,2013-03-25 11:10:00,
2013-03-25 07:15:00,36.9,35.9,29.51,SW,222,2.0,6.0,96,0.00,,CLR,0.04,VWS V14.00,2013-03-25 11:15:00,
2013-03-25 07:20:00,36.9,35.9,29.51,SW,225,3.0,6.0,96,0.00,,CLR,0.04,VWS V14.00,2013-03-25 11:20:00,
2013-03-25 07:25:00,36.9,35.9,29.51,SW,226,2.0,6.0,96,0.00,,CLR,0.04,VWS V14.00,2013-03-25 11:25:00,
2013-03-25 07:30:00,36.9,35.9,29.51,SW,217,6.0,6.0,96,0.00,,CLR,0.04,VWS V14.00,2013-03-25 11:30:00,
2013-03-25 07:35:00,36.9,35.9,29.51,SW,223,5.0,10.0,96,0.00,,CLR,0.04,VWS V14.00,2013-03-25 11:35:00,
2013-03-25 07:40:00,36.9,35.9,29.51,SSW,200,6.0,10.0,96,0.00,,CLR,0.04,VWS V14.00,2013-03-25 11:40:00,
2013-03-25 07:45:00,36.9,35.9,29.52,SW,220,4.0,10.0,96,0.00,,CLR,0.04,VWS V14.00,2013-03-25 11:45:00,
2013-03-25 07:50:00,37.1,36.1,29.52,SW,226,4.0,10.0,96,0.00,,CLR,0.04,VWS V14.00,2013-03-25 11:50:00,
2013-03-25 07:55:00,37.2,35.9,29.52,WSW,237,1.0,10.0,95,0.00,,CLR,0.04,VWS V14.00,2013-03-25 11:55:00,
2013-03-25 08:00:00,37.3,36.0,29.53,SSW,205,3.0,3.0,95,0.00,,CLR,0.04,VWS V14.00,2013-03-25 12:00:00,
2013-03-25 08:05:00,37.4,35.8,29.53,SW,219,3.0,6.0,94,0.00,,CLR,0.04,VWS V14.00,2013-03-25 12:05:00,
2013-03-25 08:10:00,37.4,35.8,29.53,WSW,240,2.0,7.0,94,0.00,,CLR,0.04,VWS V14.00,2013-03-25 12:10:00,
2013-03-25 08:15:00,37.5,35.9,29.53,SW,230,0.0,7.0,94,0.00,,CLR,0.04,VWS V14.00,2013-03-25 12:15:00,
2013-03-25 08:20:00,37.4,35.3,29.53,WSW,243,3.0,7.0,92,0.00,,CLR,0.04,VWS V14.00,2013-03-25 12:20:00,
2013-03-25 08:25:00,37.5,35.4,29.53,West,262,5.0,7.0,92,0.00,,CLR,0.04,VWS V14.00,2013-03-25 12:25:00,
2013-03-25 08:30:00,37.5,35.1,29.54,West,259,0.0,3.0,91,0.00,,CLR,0.04,VWS V14.00,2013-03-25 12:30:00,
2013-03-25 08:35:00,37.4,34.7,29.54,West,262,3.0,9.0,90,0.00,,CLR,0.04,VWS V14.00,2013-03-25 12:35:00,
2013-03-25 08:40:00,37.3,34.6,29.54,WSW,255,2.0,10.0,90,0.00,,CLR,0.04,VWS V14.00,2013-03-25 12:40:00,
2013-03-25 08:45:00,37.3,34.6,29.54,WSW,238,5.0,10.0,90,0.00,,CLR,0.04,VWS V14.00,2013-03-25 12:45:00,
2013-03-25 08:50:00,37.6,34.9,29.54,West,266,2.0,10.0,90,0.00,,CLR,0.04,VWS V14.00,2013-03-25 12:50:00,
2013-03-25 08:55:00,38.0,35.6,29.54,West,263,3.0,10.0,91,0.00,,CLR,0.04,VWS V14.00,2013-03-25 12:55:00,
2013-03-25 09:00:00,38.4,35.5,29.54,WSW,242,0.0,1.0,89,0.00,,CLR,0.04,VWS V14.00,2013-03-25 13:00:00,
2013-03-25 09:05:00,38.7,35.7,29.54,SW,224,3.0,6.0,89,0.00,,CLR,0.04,VWS V14.00,2013-03-25 13:05:00,
2013-03-25 09:10:00,38.8,35.6,29.54,WSW,256,2.0,6.0,88,0.00,,CLR,0.04,VWS V14.00,2013-03-25 13:10:00,
2013-03-25 09:15:00,39.1,34.7,29.55,West,262,5.0,10.0,84,0.00,,CLR,0.04,VWS V14.00,2013-03-25 13:15:00,
2013-03-25 09:20:00,39.1,34.1,29.55,WNW,285,2.0,14.0,82,0.00,,CLR,0.04,VWS V14.00,2013-03-25 13:20:00,
2013-03-25 09:25:00,39.4,32.8,29.55,WSW,242,8.0,14.0,77,0.00,,CLR,0.04,VWS V14.00,2013-03-25 13:25:00,
2013-03-25 09:30:00,39.4,32.5,29.56,WNW,298,1.0,2.0,76,0.00,,CLR,0.04,VWS V14.00,2013-03-25 13:30:00,
2013-03-25 09:35:00,39.6,33.0,29.56,West,281,1.0,12.0,77,0.00,,CLR,0.04,VWS V14.00,2013-03-25 13:35:00,
2013-03-25 09:40:00,40.0,34.0,29.56,SW,234,3.0,12.0,79,0.00,,CLR,0.04,VWS V14.00,2013-03-25 13:40:00,
2013-03-25 09:45:00,40.1,33.2,29.56,WSW,244,10.0,14.0,76,0.00,,CLR,0.04,VWS V14.00,2013-03-25 13:45:00,
2013-03-25 09:50:00,40.0,31.7,29.56,WSW,255,5.0,14.0,72,0.00,,CLR,0.04,VWS V14.00,2013-03-25 13:50:00,
2013-03-25 09:55:00,39.9,31.6,29.56,WSW,257,0.0,14.0,72,0.00,,CLR,0.04,VWS V14.00,2013-03-25 13:55:00,
2013-03-25 10:00:00,40.0,31.7,29.57,West,259,11.0,13.0,72,0.00,,CLR,0.04,VWS V14.00,2013-03-25 14:00:00,
2013-03-25 10:05:00,39.8,30.5,29.57,West,270,4.0,15.0,69,0.00,,CLR,0.04,VWS V14.00,2013-03-25 14:05:00,
2013-03-25 10:10:00,39.8,30.1,29.57,NW,312,4.0,15.0,68,0.00,,CLR,0.04,VWS V14.00,2013-03-25 14:10:00,
2013-03-25 10:15:00,40.3,30.6,29.58,West,274,5.0,15.0,68,0.00,,CLR,0.04,VWS V14.00,2013-03-25 14:15:00,
2013-03-25 10:20:00,40.8,31.4,29.58,WSW,253,7.0,15.0,69,0.00,,CLR,0.04,VWS V14.00,2013-03-25 14:20:00,
2013-03-25 10:25:00,41.1,31.4,29.58,West,263,12.0,15.0,68,0.00,,CLR,0.04,VWS V14.00,2013-03-25 14:25:00,
2013-03-25 10:30:00,41.1,29.5,29.58,WSW,243,6.0,10.0,63,0.00,,CLR,0.04,VWS V14.00,2013-03-25 14:30:00,
2013-03-25 10:35:00,41.6,30.3,29.58,West,262,5.0,10.0,64,0.00,,CLR,0.04,VWS V14.00,2013-03-25 14:35:00,
2013-03-25 10:40:00,41.8,29.4,29.58,WSW,247,6.0,13.0,61,0.00,,CLR,0.04,VWS V14.00,2013-03-25 14:40:00,
2013-03-25 10:45:00,41.8,29.8,29.58,SW,229,2.0,13.0,62,0.00,,CLR,0.04,VWS V14.00,2013-03-25 14:45:00,
2013-03-25 10:50:00,41.7,29.3,29.58,SW,226,12.0,13.0,61,0.00,,CLR,0.04,VWS V14.00,2013-03-25 14:50:00,
2013-03-25 10:55:00,41.6,28.8,29.58,West,267,8.0,15.0,60,0.00,,CLR,0.04,VWS V14.00,2013-03-25 14:55:00,
2013-03-25 11:00:00,41.7,28.9,29.59,West,272,4.0,11.0,60,0.00,,CLR,0.04,VWS V14.00,2013-03-25 15:00:00,
2013-03-25 11:05:00,42.5,30.4,29.59,WNW,285,2.0,12.0,62,0.00,,CLR,0.04,VWS V14.00,2013-03-25 15:05:00,
2013-03-25 11:10:00,42.7,29.4,29.59,SW,236,11.0,16.0,59,0.00,,CLR,0.04,VWS V14.00,2013-03-25 15:10:00,
2013-03-25 11:15:00,42.7,28.1,29.59,SW,217,3.0,16.0,56,0.00,,CLR,0.04,VWS V14.00,2013-03-25 15:15:00,
2013-03-25 11:20:00,43.4,27.4,29.59,SSW,211,5.0,21.0,53,0.00,,CLR,0.04,VWS V14.00,2013-03-25 15:20:00,
2013-03-25 11:25:00,43.6,29.8,29.59,West,277,7.0,21.0,58,0.00,,CLR,0.04,VWS V14.00,2013-03-25 15:25:00,
2013-03-25 11:30:00,43.5,27.5,29.59,WSW,249,10.0,18.0,53,0.00,,CLR,0.04,VWS V14.00,2013-03-25 15:30:00,
2013-03-25 11:35:00,43.8,28.2,29.59,SSW,209,16.0,19.0,54,0.00,,CLR,0.04,VWS V14.00,2013-03-25 15:35:00,
2013-03-25 11:40:00,43.4,26.5,29.59,South,187,18.0,25.0,51,0.00,,CLR,0.04,VWS V14.00,2013-03-25 15:40:00,
2013-03-25 11:45:00,43.6,27.6,29.59,WSW,249,14.0,25.0,53,0.00,,CLR,0.04,VWS V14.00,2013-03-25 15:45:00,
2013-03-25 11:50:00,43.9,26.5,29.59,SW,225,20.0,25.0,50,0.00,,CLR,0.04,VWS V14.00,2013-03-25 15:50:00,
2013-03-25 11:55:00,43.8,25.9,29.59,SW,221,10.0,25.0,49,0.00,,CLR,0.04,VWS V14.00,2013-03-25 15:55:00,
2013-03-25 12:00:00,44.3,25.9,29.59,SSW,207,13.0,19.0,48,0.00,,CLR,0.04,VWS V14.00,2013-03-25 16:00:00,
2013-03-25 12:05:00,44.3,25.4,29.59,SW,236,11.0,22.0,47,0.00,,CLR,0.04,VWS V14.00,2013-03-25 16:05:00,
2013-03-25 12:10:00,44.5,25.5,29.59,WSW,246,4.0,22.0,47,0.00,,CLR,0.04,VWS V14.00,2013-03-25 16:10:00,
2013-03-25 12:15:00,45.1,26.6,29.60,West,267,9.0,22.0,48,0.00,,CLR,0.04,VWS V14.00,2013-03-25 16:15:00,
2013-03-25 12:20:00,44.8,25.8,29.60,WNW,302,9.0,22.0,47,0.00,,CLR,0.04,VWS V14.00,2013-03-25 16:20:00,
2013-03-25 12:25:00,44.6,27.1,29.60,West,271,6.0,22.0,50,0.00,,CLR,0.04,VWS V14.00,2013-03-25 16:25:00,
2013-03-25 12:30:00,45.1,26.6,29.60,South,191,6.0,10.0,48,0.00,,CLR,0.04,VWS V14.00,2013-03-25 16:30:00,
2013-03-25 12:35:00,45.0,27.0,29.60,SW,231,4.0,24.0,49,0.00,,CLR,0.04,VWS V14.00,2013-03-25 16:35:00,
2013-03-25 12:40:00,44.9,25.9,29.60,West,272,18.0,24.0,47,0.00,,CLR,0.04,VWS V14.00,2013-03-25 16:40:00,
2013-03-25 12:45:00,44.8,26.8,29.60,West,270,12.0,24.0,49,0.00,,CLR,0.04,VWS V14.00,2013-03-25 16:45:00,
2013-03-25 12:51:00,45.5,27.0,29.60,SW,236,4.0,24.0,48,0.00,,CLR,0.04,VWS V14.00,2013-03-25 16:51:00,
2013-03-25 12:56:00,45.5,27.0,29.60,SW,236,10.0,24.0,48,0.00,,CLR,0.04,VWS V14.00,2013-03-25 16:56:00,
2013-03-25 13:01:00,45.2,25.7,29.60,WNW,283,11.0,13.0,46,0.00,,CLR,0.04,VWS V14.00,2013-03-25 17:01:00,
2013-03-25 13:06:00,45.2,25.7,29.60,WSW,242,11.0,19.0,46,0.00,,CLR,0.04,VWS V14.00,2013-03-25 17:06:00,
2013-03-25 13:11:00,45.5,26.5,29.60,WNW,288,12.0,23.0,47,0.00,,CLR,0.04,VWS V14.00,2013-03-25 17:11:00,
2013-03-25 13:16:00,45.3,26.3,29.60,SSW,210,5.0,23.0,47,0.00,,CLR,0.04,VWS V14.00,2013-03-25 17:16:00,
2013-03-25 13:21:00,45.4,25.9,29.60,WSW,258,2.0,23.0,46,0.00,,CLR,0.04,VWS V14.00,2013-03-25 17:21:00,
2013-03-25 13:26:00,45.3,25.8,29.60,WSW,237,11.0,23.0,46,0.00,,CLR,0.04,VWS V14.00,2013-03-25 17:26:00,
2013-03-25 13:31:00,45.0,26.0,29.60,WSW,250,13.0,18.0,47,0.00,,CLR,0.04,VWS V14.00,2013-03-25 17:31:00,
2013-03-25 13:36:00,45.5,27.5,29.60,West,278,10.0,18.0,49,0.00,,CLR,0.04,VWS V14.00,2013-03-25 17:36:00,
2013-03-25 13:41:00,45.2,24.6,29.60,West,271,11.0,23.0,44,0.00,,CLR,0.04,VWS V14.00,2013-03-25 17:41:00,
2013-03-25 13:46:00,44.7,25.7,29.61,SW,221,6.0,23.0,47,0.00,,CLR,0.04,VWS V14.00,2013-03-25 17:46:00,
2013-03-25 13:51:00,44.3,24.8,29.61,SW,225,4.0,23.0,46,0.00,,CLR,0.04,VWS V14.00,2013-03-25 17:51:00,
2013-03-25 13:56:00,44.3,24.3,29.61,WSW,237,6.0,23.0,45,0.00,,CLR,0.04,VWS V14.00,2013-03-25 17:56:00,
2013-03-25 14:01:00,44.6,25.6,29.60,SW,219,9.0,13.0,47,0.00,,CLR,0.04,VWS V14.00,2013-03-25 18:01:00,
2013-03-25 14:06:00,44.8,24.8,29.60,SSW,199,12.0,21.0,45,0.00,,CLR,0.04,VWS V14.00,2013-03-25 18:06:00,
2013-03-25 14:11:00,45.0,25.0,29.60,SSW,207,14.0,27.0,45,0.00,,CLR,0.04,VWS V14.00,2013-03-25 18:11:00,
2013-03-25 14:16:00,45.0,24.4,29.60,SW,226,11.0,27.0,44,0.00,,CLR,0.04,VWS V14.00,2013-03-25 18:16:00,
2013-03-25 14:21:00,44.7,24.1,29.60,SSW,207,2.0,27.0,44,0.00,,CLR,0.04,VWS V14.00,2013-03-25 18:21:00,
2013-03-25 14:26:00,45.2,25.7,29.60,WSW,255,7.0,27.0,46,0.00,,CLR,0.04,VWS V14.00,2013-03-25 18:26:00,
2013-03-25 14:31:00,45.1,25.0,29.60,SSW,210,9.0,19.0,45,0.00,,CLR,0.04,VWS V14.00,2013-03-25 18:31:00,
2013-03-25 14:36:00,45.2,25.1,29.60,SW,229,11.0,26.0,45,0.00,,CLR,0.04,VWS V14.00,2013-03-25 18:36:00,
2013-03-25 14:41:00,45.5,24.9,29.60,West,271,5.0,26.0,44,0.00,,CLR,0.04,VWS V14.00,2013-03-25 18:41:00,
2013-03-25 14:46:00,45.8,25.7,29.60,WSW,244,15.0,26.0,45,0.00,,CLR,0.04,VWS V14.00,2013-03-25 18:46:00,
2013-03-25 14:51:00,45.8,26.2,29.60,WSW,249,13.0,26.0,46,0.00,,CLR,0.04,VWS V14.00,2013-03-25 18:51:00,
2013-03-25 14:56:00,47.2,27.0,29.60,WNW,283,9.0,26.0,45,0.00,,CLR,0.04,VWS V14.00,2013-03-25 18:56:00,
2013-03-25 15:02:00,48.3,30.5,29.60,NNW,338,16.0,21.0,50,0.00,,CLR,0.04,VWS V14.00,2013-03-25 19:02:00,
2013-03-25 15:07:00,48.0,27.7,29.60,SW,221,9.0,21.0,45,0.00,,CLR,0.04,VWS V14.00,2013-03-25 19:07:00,
2013-03-25 15:12:00,47.0,26.2,29.60,SSW,195,7.0,21.0,44,0.00,,CLR,0.04,VWS V14.00,2013-03-25 19:12:00,
2013-03-25 15:17:00,46.0,24.8,29.60,SW,221,8.0,21.0,43,0.00,,CLR,0.04,VWS V14.00,2013-03-25 19:17:00,
2013-03-25 15:22:00,45.8,25.7,29.60,SSW,203,10.0,21.0,45,0.00,,CLR,0.04,VWS V14.00,2013-03-25 19:22:00,
2013-03-25 15:27:00,45.6,26.5,29.60,SW,235,10.0,21.0,47,0.00,,CLR,0.04,VWS V14.00,2013-03-25 19:27:00,
2013-03-25 15:32:00,45.5,27.0,29.61,SW,226,13.0,13.0,48,0.00,,CLR,0.04,VWS V14.00,2013-03-25 19:32:00,
2013-03-25 15:37:00,45.1,25.6,29.61,WSW,251,6.0,20.0,46,0.00,,CLR,0.04,VWS V14.00,2013-03-25 19:37:00,
2013-03-25 15:42:00,44.7,25.7,29.61,SW,224,12.0,20.0,47,0.00,,CLR,0.04,VWS V14.00,2013-03-25 19:42:00,
2013-03-25 15:47:00,44.5,24.5,29.61,SSW,205,19.0,20.0,45,0.00,,CLR,0.04,VWS V14.00,2013-03-25 19:47:00,
2013-03-25 15:52:00,44.6,25.6,29.61,West,267,10.0,22.0,47,0.00,,CLR,0.04,VWS V14.00,2013-03-25 19:52:00,
2013-03-25 15:58:00,45.0,25.0,29.61,SSW,205,10.0,22.0,45,0.00,,CLR,0.04,VWS V14.00,2013-03-25 19:58:00,
2013-03-25 16:03:00,45.0,25.5,29.60,WSW,245,5.0,16.0,46,0.00,,CLR,0.04,VWS V14.00,2013-03-25 20:03:00,
2013-03-25 16:07:00,45.3,25.2,29.60,SSW,209,6.0,16.0,45,0.00,,CLR,0.04,VWS V14.00,2013-03-25 20:07:00,
2013-03-25 16:12:00,45.2,24.6,29.60,WSW,256,6.0,18.0,44,0.00,,CLR,0.04,VWS V14.00,2013-03-25 20:12:00,
2013-03-25 16:17:00,45.2,25.7,29.61,WSW,258,14.0,18.0,46,0.00,,CLR,0.04,VWS V14.00,2013-03-25 20:17:00,
2013-03-25 16:22:00,45.2,25.1,29.61,West,281,6.0,18.0,45,0.00,,CLR,0.04,VWS V14.00,2013-03-25 20:22:00,
2013-03-25 16:27:00,45.2,24.6,29.61,SSW,204,4.0,18.0,44,0.00,,CLR,0.04,VWS V14.00,2013-03-25 20:27:00,
2013-03-25 16:32:00,45.1,25.0,29.62,WSW,250,5.0,15.0,45,0.00,,CLR,0.04,VWS V14.00,2013-03-25 20:32:00,
2013-03-25 16:37:00,45.2,25.1,29.62,SW,217,7.0,18.0,45,0.00,,CLR,0.04,VWS V14.00,2013-03-25 20:37:00,
2013-03-25 16:42:00,45.0,24.4,29.62,SW,215,3.0,18.0,44,0.00,,CLR,0.04,VWS V14.00,2013-03-25 20:42:00,
2013-03-25 16:47:00,45.0,25.5,29.62,SSW,212,7.0,18.0,46,0.00,,CLR,0.04,VWS V14.00,2013-03-25 20:47:00,
2013-03-25 16:52:00,45.0,26.0,29.62,WNW,302,10.0,18.0,47,0.00,,CLR,0.04,VWS V14.00,2013-03-25 20:52:00,
2013-03-25 16:57:00,44.7,24.7,29.62,SW,230,12.0,20.0,45,0.00,,CLR,0.04,VWS V14.00,2013-03-25 20:57:00,
2013-03-25 17:02:00,44.2,25.3,29.63,WSW,244,9.0,18.0,47,0.00,,CLR,0.04,VWS V14.00,2013-03-25 21:02:00,
2013-03-25 17:07:00,44.0,25.6,29.63,WSW,252,13.0,18.0,48,0.00,,CLR,0.04,VWS V14.00,2013-03-25 21:07:00,
2013-03-25 17:12:00,43.9,26.5,29.63,WSW,255,8.0,18.0,50,0.00,,CLR,0.04,VWS V14.00,2013-03-25 21:12:00,
2013-03-25 17:17:00,43.6,26.2,29.64,West,260,6.0,19.0,50,0.00,,CLR,0.04,VWS V14.00,2013-03-25 21:17:00,
2013-03-25 17:22:00,43.8,26.9,29.64,NNW,328,11.0,19.0,51,0.00,,CLR,0.04,VWS V14.00,2013-03-25 21:22:00,
2013-03-25 17:27:00,43.8,25.9,29.64,WNW,302,7.0,19.0,49,0.00,,CLR,0.04,VWS V14.00,2013-03-25 21:27:00,
2013-03-25 17:32:00,44.2,25.8,29.64,WSW,244,3.0,8.0,48,0.00,,CLR,0.04,VWS V14.00,2013-03-25 21:32:00,
2013-03-25 17:37:00,44.2,25.8,29.64,West,269,11.0,16.0,48,0.00,,CLR,0.04,VWS V14.00,2013-03-25 21:37:00,
2013-03-25 17:42:00,43.6,25.7,29.64,SW,217,7.0,16.0,49,0.00,,CLR,0.04,VWS V14.00,2013-03-25 21:42:00,
2013-03-25 17:47:00,43.7,26.3,29.65,West,270,6.0,16.0,50,0.00,,CLR,0.04,VWS V14.00,2013-03-25 21:47:00,
2013-03-25 17:52:00,44.2,26.3,29.65,WSW,257,4.0,16.0,49,0.00,,CLR,0.04,VWS V14.00,2013-03-25 21:52:00,
2013-03-25 17:57:00,44.5,25.5,29.65,SW,229,7.0,16.0,47,0.00,,CLR,0.04,VWS V14.00,2013-03-25 21:57:00,
2013-03-25 18:02:00,44.6,25.6,29.66,WSW,248,6.0,11.0,47,0.00,,CLR,0.04,VWS V14.00,2013-03-25 22:02:00,
2013-03-25 18:07:00,44.5,25.0,29.66,SW,222,7.0,13.0,46,0.00,,CLR,0.04,VWS V14.00,2013-03-25 22:07:00,
2013-03-25 18:12:00,43.7,24.8,29.66,West,267,3.0,19.0,47,0.00,,CLR,0.04,VWS V14.00,2013-03-25 22:12:00,
2013-03-25 18:17:00,43.5,24.6,29.67,South,187,10.0,19.0,47,0.00,,CLR,0.04,VWS V14.00,2013-03-25 22:17:00,
2013-03-25 18:23:00,43.3,24.9,29.67,SW,225,5.0,19.0,48,0.00,,CLR,0.04,VWS V14.00,2013-03-25 22:23:00,
2013-03-25 18:27:00,43.3,25.4,29.67,WSW,252,6.0,19.0,49,0.00,,CLR,0.04,VWS V14.00,2013-03-25 22:27:00,
2013-03-25 18:32:00,43.3,24.9,29.67,SW,236,12.0,20.0,48,0.00,,CLR,0.04,VWS V14.00,2013-03-25 22:32:00,
2013-03-25 18:37:00,43.7,24.8,29.67,SW,224,5.0,20.0,47,0.00,,CLR,0.04,VWS V14.00,2013-03-25 22:37:00,
2013-03-25 18:42:00,43.6,24.7,29.67,WSW,240,4.0,20.0,47,0.00,,CLR,0.04,VWS V14.00,2013-03-25 22:42:00,
2013-03-25 18:47:00,43.2,24.4,29.68,WSW,243,12.0,20.0,47,0.00,,CLR,0.04,VWS V14.00,2013-03-25 22:47:00,
2013-03-25 18:52:00,43.0,24.2,29.68,SSW,201,3.0,20.0,47,0.00,,CLR,0.04,VWS V14.00,2013-03-25 22:52:00,
2013-03-25 18:57:00,42.8,25.0,29.68,SW,232,4.0,20.0,49,0.00,,CLR,0.04,VWS V14.00,2013-03-25 22:57:00,
2013-03-25 19:02:00,42.7,24.4,29.69,WSW,258,4.0,12.0,48,0.00,,CLR,0.04,VWS V14.00,2013-03-25 23:02:00,
2013-03-25 19:07:00,42.7,25.9,29.69,SW,226,4.0,12.0,51,0.00,,CLR,0.04,VWS V14.00,2013-03-25 23:07:00,
2013-03-25 19:13:00,42.7,24.9,29.69,WSW,238,5.0,14.0,49,0.00,,CLR,0.04,VWS V14.00,2013-03-25 23:13:00,
2013-03-25 19:18:00,42.6,25.8,29.71,WSW,238,7.0,17.0,51,0.00,,CLR,0.04,VWS V14.00,2013-03-25 23:18:00,
2013-03-25 19:23:00,42.1,25.8,29.71,SW,236,3.0,17.0,52,0.00,,CLR,0.04,VWS V14.00,2013-03-25 23:23:00,
2013-03-25 19:28:00,41.8,25.5,29.71,WSW,256,5.0,17.0,52,0.00,,CLR,0.04,VWS V14.00,2013-03-25 23:28:00,
2013-03-25 19:33:00,41.3,25.0,29.71,West,269,5.0,12.0,52,0.00,,CLR,0.04,VWS V14.00,2013-03-25 23:33:00,
2013-03-25 19:38:00,40.9,24.2,29.71,WSW,254,11.0,19.0,51,0.00,,CLR,0.04,VWS V14.00,2013-03-25 23:38:00,
2013-03-25 19:43:00,40.9,24.2,29.71,WNW,286,5.0,19.0,51,0.00,,CLR,0.04,VWS V14.00,2013-03-25 23:43:00,
2013-03-25 19:48:00,40.7,24.5,29.71,WSW,238,2.0,19.0,52,0.00,,CLR,0.04,VWS V14.00,2013-03-25 23:48:00,
2013-03-25 19:53:00,40.5,24.3,29.71,SW,221,3.0,19.0,52,0.00,,CLR,0.04,VWS V14.00,2013-03-25 23:53:00,
2013-03-25 19:58:00,40.2,24.5,29.71,West,259,6.0,19.0,53,0.00,,CLR,0.04,VWS V14.00,2013-03-25 23:58:00,
2013-03-25 20:03:00,40.0,24.7,29.73,WSW,240,4.0,10.0,54,0.00,,CLR,0.04,VWS V14.00,2013-03-26 00:03:00,
2013-03-25 20:08:00,39.9,24.6,29.73,SW,236,2.0,12.0,54,0.00,,CLR,0.04,VWS V14.00,2013-03-26 00:08:00,
2013-03-25 20:13:00,39.8,24.5,29.73,SW,230,3.0,16.0,54,0.00,,CLR,0.04,VWS V14.00,2013-03-26 00:13:00,
2013-03-25 20:18:00,39.7,24.4,29.73,WNW,283,5.0,16.0,54,0.00,,CLR,0.04,VWS V14.00,2013-03-26 00:18:00,
2013-03-25 20:23:00,39.6,24.3,29.73,West,269,5.0,16.0,54,0.00,,CLR,0.04,VWS V14.00,2013-03-26 00:23:00,
2013-03-25 20:28:00,39.6,24.3,29.73,West,278,6.0,16.0,54,0.00,,CLR,0.04,VWS V14.00,2013-03-26 00:28:00,
2013-03-25 20:33:00,39.4,24.1,29.74,SSW,213,6.0,9.0,54,0.00,,CLR,0.04,VWS V14.00,2013-03-26 00:33:00,
2013-03-25 20:38:00,39.4,23.7,29.74,SW,231,5.0,16.0,53,0.00,,CLR,0.04,VWS V14.00,2013-03-26 00:38:00,
2013-03-25 20:43:00,39.4,23.7,29.74,WSW,243,2.0,16.0,53,0.00,,CLR,0.04,VWS V14.00,2013-03-26 00:43:00,
2013-03-25 20:48:00,39.4,23.7,29.75,South,188,9.0,16.0,53,0.00,,CLR,0.04,VWS V14.00,2013-03-26 00:48:00,
2013-03-25 20:53:00,39.3,23.6,29.75,WSW,255,1.0,16.0,53,0.00,,CLR,0.04,VWS V14.00,2013-03-26 00:53:00,
2013-03-25 20:58:00,39.1,23.4,29.75,SSW,207,5.0,16.0,53,0.00,,CLR,0.04,VWS V14.00,2013-03-26 00:58:00,
2013-03-25 21:03:00,39.1,23.4,29.76,SW,221,6.0,15.0,53,0.00,,CLR,0.04,VWS V14.00,2013-03-26 01:03:00,
2013-03-25 21:08:00,39.1,23.4,29.76,WSW,242,4.0,15.0,53,0.00,,CLR,0.04,VWS V14.00,2013-03-26 01:08:00,
2013-03-25 21:13:00,39.1,23.4,29.76,West,264,9.0,20.0,53,0.00,,CLR,0.04,VWS V14.00,2013-03-26 01:13:00,
2013-03-25 21:18:00,39.0,23.3,29.76,WSW,250,5.0,20.0,53,0.00,,CLR,0.04,VWS V14.00,2013-03-26 01:18:00,
2013-03-25 21:23:00,38.9,23.7,29.76,WSW,252,1.0,20.0,54,0.00,,CLR,0.04,VWS V14.00,2013-03-26 01:23:00,
2013-03-25 21:28:00,38.7,23.5,29.76,WNW,287,6.0,20.0,54,0.00,,CLR,0.04,VWS V14.00,2013-03-26 01:28:00,
2013-03-25 21:33:00,38.5,23.3,29.77,WSW,237,4.0,12.0,54,0.00,,CLR,0.04,VWS V14.00,2013-03-26 01:33:00,
2013-03-25 21:38:00,38.3,23.6,29.77,SW,225,7.0,12.0,55,0.00,,CLR,0.04,VWS V14.00,2013-03-26 01:38:00,
2013-03-25 21:43:00,38.3,23.6,29.77,WSW,245,5.0,13.0,55,0.00,,CLR,0.04,VWS V14.00,2013-03-26 01:43:00,
2013-03-25 21:48:00,38.2,23.5,29.78,WSW,245,7.0,13.0,55,0.00,,CLR,0.04,VWS V14.00,2013-03-26 01:48:00,
2013-03-25 21:53:00,38.2,23.5,29.78,SW,226,12.0,18.0,55,0.00,,CLR,0.04,VWS V14.00,2013-03-26 01:53:00,
2013-03-25 21:58:00,38.0,23.7,29.78,West,264,11.0,18.0,56,0.00,,CLR,0.04,VWS V14.00,2013-03-26 01:58:00,
2013-03-25 22:03:00,38.0,23.7,29.77,WSW,243,4.0,14.0,56,0.00,,CLR,0.04,VWS V14.00,2013-03-26 02:03:00,
2013-03-25 22:08:00,38.1,23.4,29.77,WSW,250,4.0,15.0,55,0.00,,CLR,0.04,VWS V14.00,2013-03-26 02:08:00,
2013-03-25 22:13:00,38.0,23.7,29.77,SW,215,9.0,15.0,56,0.00,,CLR,0.04,VWS V14.00,2013-03-26 02:13:00,
2013-03-25 22:18:00,37.9,23.6,29.78,SW,214,3.0,17.0,56,0.00,,CLR,0.04,VWS V14.00,2013-03-26 02:18:00,
2013-03-25 22:23:00,38.0,23.3,29.78,SW,235,4.0,17.0,55,0.00,,CLR,0.04,VWS V14.00,2013-03-26 02:23:00,
2013-03-25 22:28:00,37.9,23.6,29.78,West,280,0.0,17.0,56,0.00,,CLR,0.04,VWS V14.00,2013-03-26 02:28:00,
2013-03-25 22:33:00,37.9,23.6,29.79,SSW,212,4.0,10.0,56,0.00,,CLR,0.04,VWS V14.00,2013-03-26 02:33:00,
2013-03-25 22:38:00,37.8,23.5,29.79,SW,225,10.0,12.0,56,0.00,,CLR,0.04,VWS V14.00,2013-03-26 02:38:00,
2013-03-25 22:43:00,37.9,23.6,29.79,SW,236,9.0,21.0,56,0.00,,CLR,0.04,VWS V14.00,2013-03-26 02:43:00,
2013-03-25 22:48:00,37.8,23.5,29.79,WSW,242,1.0,21.0,56,0.00,,CLR,0.04,VWS V14.00,2013-03-26 02:48:00,
2013-03-25 22:53:00,37.7,23.4,29.79,WSW,247,0.0,21.0,56,0.00,,CLR,0.04,VWS V14.00,2013-03-26 02:53:00,
2013-03-25 22:58:00,37.7,23.4,29.79,SSW,212,4.0,21.0,56,0.00,,CLR,0.04,VWS V14.00,2013-03-26 02:58:00,
2013-03-25 23:03:00,37.7,23.9,29.80,SW,215,11.0,11.0,57,0.00,,CLR,0.04,VWS V14.00,2013-03-26 03:03:00,
2013-03-25 23:08:00,37.7,23.4,29.80,SSW,199,4.0,13.0,56,0.00,,CLR,0.04,VWS V14.00,2013-03-26 03:08:00,
2013-03-25 23:13:00,37.6,23.8,29.80,SW,228,11.0,13.0,57,0.00,,CLR,0.04,VWS V14.00,2013-03-26 03:13:00,
2013-03-25 23:18:00,37.7,23.9,29.80,West,268,7.0,13.0,57,0.00,,CLR,0.04,VWS V14.00,2013-03-26 03:18:00,
2013-03-25 23:23:00,37.6,23.8,29.80,SW,229,5.0,14.0,57,0.00,,CLR,0.04,VWS V14.00,2013-03-26 03:23:00,
2013-03-25 23:28:00,37.6,24.2,29.80,SW,214,4.0,17.0,58,0.00,,CLR,0.04,VWS V14.00,2013-03-26 03:28:00,
2013-03-25 23:33:00,37.7,24.3,29.81,West,261,5.0,13.0,58,0.00,,CLR,0.04,VWS V14.00,2013-03-26 03:33:00,
2013-03-25 23:38:00,37.6,24.2,29.81,SSW,193,3.0,13.0,58,0.00,,CLR,0.04,VWS V14.00,2013-03-26 03:38:00,
2013-03-25 23:43:00,37.6,24.2,29.81,South,190,5.0,14.0,58,0.00,,CLR,0.04,VWS V14.00,2013-03-26 03:43:00,
2013-03-25 23:48:00,37.5,24.5,29.80,SSW,195,6.0,14.0,59,0.00,,CLR,0.04,VWS V14.00,2013-03-26 03:48:00,
2013-03-25 23:53:00,37.4,24.8,29.80,WSW,240,6.0,18.0,60,0.00,,CLR,0.04,VWS V14.00,2013-03-26 03:53:00,
2013-03-25 23:58:00,37.4,24.8,29.80,WSW,238,9.0,18.0,60,0.00,,CLR,0.04,VWS V14.00,2013-03-26 03:58:00,